Cherry Point Marine Corps Ai, North Carolina
Current Conditions -  °F | °C
As of 3:54 PM on Saturday 22 Nov 2014 (Local Time) from KNKT Reporting Station
Clear Clear  
Wind Chill: 56°   Ceiling: Unl
Heat Index: 56°   Visibility: 10mi
Dew Point: 36°   Wind: 6mph
Humidity: 47%   Direction: 80°E
Pressure: 30.43"   Gusts: NA
Location:  34.8973°N, 76.9091°W
Report Text: KNKT 222054Z 08005KT 10SM CLR 13/02 A3043 RMK AO2 SLP300 T01330022 56020 $
Loading
Personal Weather Stations






























Interactive Weather Map New forecast layout! Learn more

10-Day Weather Forecast

Advertisements
Track Severe Weather on mobile